KCAD

Wexford County Airport

Cadillac, Michigan, USA
METAR KCAD 240215Z AUTO 00000KT 10SM CLR 14/07 A3018 RMK AO2 T01460072
Observed Flight Rules
May-24 @ 02:15 UTC (8 minutes ago) Visual Flight Rules
Visibility Clouds
10 miles
  • Clear skies
Temperatures Readings
Current 15°C / 59°F
Dewpoint 7°C / 45°F
Humidity 59%
Altimeter 30.18" Hg
Pressure 1022 hPa
Elevation 398
METAR KCAD 240215Z AUTO 00000KT 10SM CLR 14/07 A3018 RMK AO2 T01460072
Observed Flight Rules
May-24 @ 02:15 UTC
(8 minutes ago)
VFR
Clouds
  • Clear skies
Temperature Dewpoint
15°C / 59°F 7°C / 45°F
Humidity Altimeter Pressure
59% 30.18" Hg 1022 hPa